Time;durP1;ratioP1;P1;durP2;ratioP2;P2;SDS_P1;SDS_P2;PMS_P1;PMS_P2;Temp;Humidity;BMP_temperature;BMP_pressure;BME280_temperature;BME280_humidity;BME280_pressure;Samples;Min_cycle;Max_cycle;Signal;HPM_P1;HPM_P2
2021/07/22 00:00:22;;;;;;;23.35;14.65;;;23.50;91.80;;;;;;5071029;28;20400;-77
2021/07/22 00:02:49;;;;;;;23.50;15.70;;;23.40;91.90;;;;;;5070446;28;20071;-76
2021/07/22 00:05:15;;;;;;;24.30;15.75;;;23.40;91.80;;;;;;5070626;28;20086;-76
2021/07/22 00:07:40;;;;;;;22.48;15.18;;;23.40;91.80;;;;;;5070106;28;20025;-77
2021/07/22 00:10:06;;;;;;;21.20;15.23;;;23.40;92.00;;;;;;5070266;28;20029;-76
2021/07/22 00:12:32;;;;;;;20.88;15.45;;;23.40;92.00;;;;;;5072463;28;20024;-77
2021/07/22 00:14:58;;;;;;;23.40;15.68;;;23.30;92.00;;;;;;5073923;28;20036;-77
2021/07/22 00:17:23;;;;;;;26.50;15.15;;;23.40;92.00;;;;;;5074395;28;20020;-76
2021/07/22 00:19:49;;;;;;;25.00;15.38;;;23.30;92.00;;;;;;5073707;28;20041;-76
2021/07/22 00:22:15;;;;;;;24.52;15.50;;;23.30;92.10;;;;;;5074005;28;20024;-78
2021/07/22 00:24:41;;;;;;;23.65;15.63;;;23.30;92.40;;;;;;5073387;28;20082;-78
2021/07/22 00:27:06;;;;;;;21.80;15.85;;;23.30;92.00;;;;;;5073829;28;20020;-76
2021/07/22 00:29:35;;;;;;;23.17;16.02;;;23.30;92.10;;;;;;5073703;28;20044;-75
2021/07/22 00:32:01;;;;;;;21.58;16.05;;;23.30;92.10;;;;;;5074265;28;20020;-76
2021/07/22 00:34:27;;;;;;;24.63;15.93;;;23.30;92.10;;;;;;5073420;28;20528;-77
2021/07/22 00:36:53;;;;;;;25.90;17.20;;;23.30;92.10;;;;;;5073669;28;20151;-76
2021/07/22 00:39:18;;;;;;;24.17;17.88;;;23.30;92.20;;;;;;5073990;28;20028;-77
2021/07/22 00:41:44;;;;;;;24.25;16.58;;;23.30;92.10;;;;;;5071789;28;20021;-77
2021/07/22 00:44:10;;;;;;;25.35;17.33;;;23.30;92.20;;;;;;5073619;28;20020;-77
2021/07/22 00:46:36;;;;;;;23.95;16.50;;;23.30;92.10;;;;;;5073380;28;20031;-77
2021/07/22 00:49:01;;;;;;;23.80;17.38;;;23.30;92.20;;;;;;5073417;28;20031;-77
2021/07/22 00:51:27;;;;;;;23.83;16.83;;;23.30;92.20;;;;;;5073454;28;20404;-77
2021/07/22 00:53:53;;;;;;;25.55;16.77;;;23.20;92.10;;;;;;5073703;28;20036;-76
2021/07/22 00:56:18;;;;;;;24.08;16.70;;;23.20;92.20;;;;;;5073400;28;20079;-77
2021/07/22 00:58:44;;;;;;;22.88;16.88;;;23.20;92.40;;;;;;5072960;28;20021;-77
2021/07/22 01:01:09;;;;;;;29.58;17.73;;;23.20;92.40;;;;;;5073520;28;20031;-78
2021/07/22 01:03:36;;;;;;;24.58;16.67;;;23.20;92.50;;;;;;5073732;28;20033;-77
2021/07/22 01:06:02;;;;;;;27.02;17.27;;;23.20;92.60;;;;;;5073170;28;20025;-77
2021/07/22 01:08:27;;;;;;;26.60;18.65;;;23.20;92.60;;;;;;5072821;28;20027;-78
2021/07/22 01:10:53;;;;;;;26.25;18.50;;;23.20;92.60;;;;;;5073451;28;20499;-78
2021/07/22 01:13:19;;;;;;;22.90;17.27;;;23.20;92.60;;;;;;5073467;28;20103;-78
2021/07/22 01:15:44;;;;;;;29.50;18.45;;;23.20;92.70;;;;;;5073081;28;20078;-76
2021/07/22 01:18:10;;;;;;;24.05;17.60;;;23.20;92.60;;;;;;5072990;28;20146;-76
2021/07/22 01:20:36;;;;;;;26.80;18.33;;;23.20;92.60;;;;;;5073015;28;20028;-76
2021/07/22 01:23:01;;;;;;;27.35;19.70;;;23.20;92.60;;;;;;5071468;28;20031;-76
2021/07/22 01:25:29;;;;;;;28.15;18.65;;;23.10;92.60;;;;;;5072372;28;20492;-78
2021/07/22 01:27:55;;;;;;;31.98;20.80;;;23.10;92.60;;;;;;5071650;28;20031;-76
2021/07/22 01:30:21;;;;;;;32.05;20.83;;;23.10;92.60;;;;;;5072655;28;20396;-76
2021/07/22 01:32:47;;;;;;;28.13;19.77;;;23.10;92.60;;;;;;5072558;28;20028;-76
2021/07/22 01:35:13;;;;;;;29.15;19.90;;;23.10;92.60;;;;;;5072370;28;20048;-76
2021/07/22 01:37:40;;;;;;;27.48;19.65;;;23.10;92.60;;;;;;5072330;28;20546;-76
2021/07/22 01:40:07;;;;;;;29.45;21.80;;;23.10;92.60;;;;;;5072647;28;20119;-76
2021/07/22 01:42:33;;;;;;;31.25;19.33;;;23.10;92.60;;;;;;5072541;28;20073;-76
2021/07/22 01:44:58;;;;;;;28.58;19.65;;;23.10;92.60;;;;;;5072232;28;20032;-77
2021/07/22 01:47:24;;;;;;;28.80;19.33;;;23.10;92.60;;;;;;5072322;28;20021;-75
2021/07/22 01:49:50;;;;;;;32.10;21.33;;;23.10;92.60;;;;;;5072158;28;20381;-77
2021/07/22 01:52:15;;;;;;;32.42;21.42;;;23.00;92.60;;;;;;5072394;28;20021;-77
2021/07/22 01:54:41;;;;;;;29.85;20.98;;;23.00;92.60;;;;;;5070356;28;20039;-76
2021/07/22 01:57:07;;;;;;;30.92;19.50;;;23.00;92.60;;;;;;5072269;28;20400;-76
2021/07/22 01:59:38;;;;;;;32.60;21.08;;;23.00;92.60;;;;;;5071255;28;20063;-77
2021/07/22 02:02:08;;;;;;;29.60;20.70;;;23.00;92.60;;;;;;5072005;28;20173;-76
2021/07/22 02:04:34;;;;;;;30.40;20.77;;;23.00;92.60;;;;;;5072061;28;20025;-77
2021/07/22 02:07:01;;;;;;;34.97;21.98;;;23.00;92.60;;;;;;5071875;28;20500;-77
2021/07/22 02:09:27;;;;;;;31.25;20.65;;;23.00;92.60;;;;;;5072362;28;20035;-76
2021/07/22 02:11:54;;;;;;;29.88;20.30;;;23.00;92.60;;;;;;5071196;28;20107;-77
2021/07/22 02:14:20;;;;;;;30.15;20.85;;;23.00;92.90;;;;;;5071491;28;20037;-77
2021/07/22 02:16:46;;;;;;;28.33;19.45;;;22.90;92.80;;;;;;5071402;28;20027;-76
2021/07/22 02:19:11;;;;;;;26.02;19.67;;;22.90;92.50;;;;;;5070646;28;20033;-76
2021/07/22 02:21:38;;;;;;;29.90;20.02;;;22.90;92.60;;;;;;5071394;28;20472;-76
2021/07/22 02:24:08;;;;;;;30.65;20.70;;;22.90;92.60;;;;;;5071604;28;20048;-76
2021/07/22 02:26:34;;;;;;;28.80;19.70;;;22.90;92.60;;;;;;5071670;28;20082;-76
2021/07/22 02:29:00;;;;;;;31.20;21.17;;;22.90;92.50;;;;;;5069777;28;20021;-76
2021/07/22 02:31:26;;;;;;;30.38;19.58;;;22.80;92.60;;;;;;5071836;28;20030;-76
2021/07/22 02:33:52;;;;;;;28.23;18.75;;;22.90;92.60;;;;;;5071229;28;20467;-76
2021/07/22 02:36:18;;;;;;;28.05;20.27;;;22.90;92.60;;;;;;5071488;28;20024;-76
2021/07/22 02:38:43;;;;;;;29.75;19.50;;;22.90;92.50;;;;;;5069974;28;20047;-76
2021/07/22 02:41:09;;;;;;;26.88;19.88;;;22.80;92.60;;;;;;5071185;28;20027;-75
2021/07/22 02:43:35;;;;;;;26.27;19.63;;;22.80;92.60;;;;;;5071214;28;20108;-76
2021/07/22 02:46:13;;;;;;;30.20;20.55;;;22.80;92.50;;;;;;5071436;28;20119;-76
2021/07/22 02:48:39;;;;;;;27.35;18.98;;;22.80;92.50;;;;;;5069893;28;20020;-77
2021/07/22 02:51:07;;;;;;;31.75;20.73;;;22.80;92.50;;;;;;5071490;28;20077;-77
2021/07/22 02:53:34;;;;;;;28.02;19.20;;;22.80;92.50;;;;;;5069602;28;20032;-77
2021/07/22 02:56:01;;;;;;;29.63;19.88;;;22.80;92.50;;;;;;5070844;28;20366;-77
2021/07/22 02:58:27;;;;;;;29.80;19.83;;;22.80;92.50;;;;;;5070420;28;20044;-77
2021/07/22 03:00:53;;;;;;;29.00;20.10;;;22.80;92.50;;;;;;5069868;28;20400;-76
2021/07/22 03:03:19;;;;;;;32.50;22.20;;;22.70;92.50;;;;;;5070965;28;20020;-78
2021/07/22 03:05:45;;;;;;;31.17;20.42;;;22.70;92.50;;;;;;5070991;28;20384;-76
2021/07/22 03:08:11;;;;;;;31.42;21.88;;;22.70;92.50;;;;;;5071292;28;20032;-76
2021/07/22 03:10:37;;;;;;;34.60;22.75;;;22.70;92.60;;;;;;5070217;28;20496;-76
2021/07/22 03:13:03;;;;;;;34.38;22.70;;;22.70;92.70;;;;;;5070839;28;20037;-76
2021/07/22 03:15:29;;;;;;;34.78;22.55;;;22.70;92.60;;;;;;5071092;28;20020;-76
2021/07/22 03:17:55;;;;;;;30.60;21.48;;;22.70;92.70;;;;;;5071563;28;20078;-77
2021/07/22 03:20:21;;;;;;;34.33;23.10;;;22.70;92.80;;;;;;5071083;28;20025;-76
2021/07/22 03:22:46;;;;;;;37.92;23.98;;;22.70;92.80;;;;;;5069735;28;20482;-77
2021/07/22 03:25:12;;;;;;;37.53;24.33;;;22.70;92.80;;;;;;5071240;28;20396;-76
2021/07/22 03:27:38;;;;;;;33.13;22.63;;;22.60;92.70;;;;;;5071081;28;20070;-77
2021/07/22 03:30:04;;;;;;;35.72;24.30;;;22.60;92.80;;;;;;5071034;28;20031;-77
2021/07/22 03:32:30;;;;;;;37.25;23.83;;;22.60;92.80;;;;;;5069990;28;20400;-76
2021/07/22 03:34:55;;;;;;;36.78;24.13;;;22.60;92.80;;;;;;5071928;28;20032;-77
2021/07/22 03:37:21;;;;;;;37.35;25.48;;;22.60;92.80;;;;;;5071327;28;20033;-77
2021/07/22 03:39:47;;;;;;;37.00;25.83;;;22.60;92.90;;;;;;5071213;28;20031;-76
2021/07/22 03:42:12;;;;;;;37.45;25.25;;;22.60;93.00;;;;;;5071209;28;20029;-75
2021/07/22 03:44:38;;;;;;;37.67;25.60;;;22.60;93.10;;;;;;5071044;28;20020;-77
2021/07/22 03:47:05;;;;;;;41.05;26.63;;;22.60;93.10;;;;;;5074472;28;20119;-76
2021/07/22 03:49:30;;;;;;;42.08;27.23;;;22.60;93.20;;;;;;5075655;28;20506;-77
2021/07/22 03:51:57;;;;;;;43.05;26.60;;;22.60;93.20;;;;;;5075744;28;20024;-76
2021/07/22 03:54:23;;;;;;;43.70;29.20;;;22.60;93.30;;;;;;5075043;28;20094;-76
2021/07/22 03:56:50;;;;;;;46.38;27.17;;;22.60;93.30;;;;;;5074793;28;20027;-76
2021/07/22 03:59:16;;;;;;;43.47;29.15;;;22.60;93.40;;;;;;5074657;28;20435;-76
2021/07/22 04:01:42;;;;;;;43.25;27.63;;;22.50;93.40;;;;;;5074948;28;20070;-76
2021/07/22 04:04:08;;;;;;;45.55;29.17;;;22.50;93.40;;;;;;5075168;28;20024;-76
2021/07/22 04:06:38;;;;;;;44.22;29.13;;;22.50;93.50;;;;;;5074914;28;20048;-76
2021/07/22 04:09:04;;;;;;;49.13;29.55;;;22.50;93.50;;;;;;5075015;28;20017;-77
2021/07/22 04:11:30;;;;;;;45.63;30.48;;;22.50;93.60;;;;;;5074537;28;20484;-77
2021/07/22 04:13:56;;;;;;;48.33;30.40;;;22.50;93.60;;;;;;5075212;28;20103;-76
2021/07/22 04:16:21;;;;;;;46.90;30.33;;;22.50;93.70;;;;;;5074485;28;20111;-76
2021/07/22 04:18:47;;;;;;;44.00;29.42;;;22.50;93.80;;;;;;5074679;28;20108;-77
2021/07/22 04:21:12;;;;;;;48.83;30.25;;;22.50;93.80;;;;;;5074447;28;20095;-76
2021/07/22 04:23:38;;;;;;;52.47;32.33;;;22.40;93.80;;;;;;5074354;28;20443;-76
2021/07/22 04:26:04;;;;;;;52.42;32.42;;;22.40;93.90;;;;;;5074146;28;20107;-76
2021/07/22 04:28:30;;;;;;;53.15;34.78;;;22.40;93.90;;;;;;5073820;28;20500;-76
2021/07/22 04:30:55;;;;;;;52.15;32.58;;;22.40;94.00;;;;;;5074430;28;20028;-76
2021/07/22 04:33:21;;;;;;;50.67;32.58;;;22.40;94.00;;;;;;5074553;28;20028;-76
2021/07/22 04:35:46;;;;;;;50.75;33.10;;;22.40;94.00;;;;;;5072897;28;20028;-77
2021/07/22 04:38:12;;;;;;;56.70;33.70;;;22.40;94.30;;;;;;5073918;28;20389;-76
2021/07/22 04:40:38;;;;;;;51.47;33.80;;;22.40;94.00;;;;;;5074271;28;20482;-76
2021/07/22 04:43:04;;;;;;;50.25;33.65;;;22.40;94.10;;;;;;5074430;28;20557;-76
2021/07/22 04:45:29;;;;;;;56.83;34.67;;;22.40;94.10;;;;;;5074035;28;20028;-76
2021/07/22 04:47:55;;;;;;;54.67;34.45;;;22.40;94.10;;;;;;5074011;28;20020;-77
2021/07/22 04:50:21;;;;;;;55.03;35.03;;;22.40;94.10;;;;;;5074185;28;20385;-76
2021/07/22 04:52:46;;;;;;;58.63;36.75;;;22.40;94.20;;;;;;5072373;28;20101;-76
2021/07/22 04:55:12;;;;;;;60.83;35.85;;;22.40;94.20;;;;;;5073812;28;20507;-77
2021/07/22 04:57:38;;;;;;;55.75;35.20;;;22.40;94.30;;;;;;5072919;28;20064;-76
2021/07/22 05:00:07;;;;;;;54.70;34.55;;;22.40;94.30;;;;;;5073422;28;20072;-77
2021/07/22 05:02:32;;;;;;;53.35;35.25;;;22.40;94.30;;;;;;5073778;28;20031;-77
2021/07/22 05:04:58;;;;;;;65.32;36.42;;;22.40;94.40;;;;;;5074138;28;20032;-77
2021/07/22 05:07:24;;;;;;;57.75;37.35;;;22.40;94.40;;;;;;5073481;28;20528;-76
2021/07/22 05:09:50;;;;;;;58.05;37.47;;;22.30;94.50;;;;;;5073879;28;20117;-76
2021/07/22 05:12:15;;;;;;;58.08;36.22;;;22.40;94.60;;;;;;5073744;28;20416;-77
2021/07/22 05:14:41;;;;;;;56.55;36.53;;;22.40;94.60;;;;;;5072183;28;20067;-77
2021/07/22 05:17:07;;;;;;;63.17;37.55;;;22.30;94.70;;;;;;5073749;28;20435;-76
2021/07/22 05:19:33;;;;;;;57.08;37.05;;;22.30;94.70;;;;;;5074228;28;20028;-78
2021/07/22 05:21:59;;;;;;;57.25;37.63;;;22.40;94.80;;;;;;5073555;28;20071;-77
2021/07/22 05:24:25;;;;;;;54.60;37.08;;;22.30;94.80;;;;;;5073361;28;20039;-76
2021/07/22 05:26:51;;;;;;;64.53;40.05;;;22.30;94.80;;;;;;5073579;28;20020;-77
2021/07/22 05:29:17;;;;;;;59.67;38.63;;;22.40;94.90;;;;;;5073388;28;20045;-76
2021/07/22 05:31:43;;;;;;;59.72;37.55;;;22.30;94.90;;;;;;5072985;28;20050;-78
2021/07/22 05:34:09;;;;;;;64.88;38.85;;;22.30;94.90;;;;;;5053620;28;20119;-76
2021/07/22 05:36:35;;;;;;;64.90;40.13;;;22.30;95.00;;;;;;5064458;28;20028;-77
2021/07/22 05:39:02;;;;;;;69.25;41.80;;;22.30;95.00;;;;;;5073815;28;20485;-78
2021/07/22 05:41:28;;;;;;;63.83;39.67;;;22.30;95.10;;;;;;5072704;28;20086;-77
2021/07/22 05:43:53;;;;;;;68.00;40.25;;;22.30;95.10;;;;;;5073200;28;20032;-76
2021/07/22 05:46:20;;;;;;;71.10;41.55;;;22.30;95.20;;;;;;5072580;28;20025;-80
2021/07/22 05:48:47;;;;;;;65.25;40.60;;;22.30;95.30;;;;;;5073222;28;20079;-79
2021/07/22 05:51:13;;;;;;;67.18;40.90;;;22.30;95.30;;;;;;5072615;28;20441;-78
2021/07/22 05:53:39;;;;;;;65.20;40.17;;;22.30;95.40;;;;;;5072783;28;20484;-81
2021/07/22 05:56:04;;;;;;;69.70;41.53;;;22.30;95.50;;;;;;5073235;28;20039;-81
2021/07/22 05:58:34;;;;;;;66.65;40.83;;;22.30;95.90;;;;;;5072441;28;20033;-82
2021/07/22 06:01:05;;;;;;;65.50;38.95;;;22.30;95.70;;;;;;5071405;28;20374;-83
2021/07/22 06:03:30;;;;;;;67.60;39.00;;;22.30;96.10;;;;;;5072903;28;20032;-81
2021/07/22 06:05:56;;;;;;;63.97;39.45;;;22.30;95.80;;;;;;5072638;28;20017;-79
2021/07/22 06:08:22;;;;;;;70.03;39.28;;;22.40;95.90;;;;;;5073313;28;20113;-82
2021/07/22 06:10:47;;;;;;;70.00;42.17;;;22.40;96.00;;;;;;5072734;28;20171;-82
2021/07/22 06:13:13;;;;;;;72.15;41.17;;;22.40;96.10;;;;;;5072811;28;20032;-88
2021/07/22 06:15:39;;;;;;;66.38;40.10;;;22.40;96.20;;;;;;5073866;28;20024;-80
2021/07/22 06:18:05;;;;;;;69.00;42.28;;;22.40;96.20;;;;;;5073967;28;20029;-80
2021/07/22 06:20:30;;;;;;;72.15;42.08;;;22.40;96.30;;;;;;5073706;28;20078;-84
2021/07/22 06:22:56;;;;;;;77.10;45.78;;;22.40;96.40;;;;;;5073705;28;20036;-84
2021/07/22 06:25:22;;;;;;;75.97;45.53;;;22.40;96.60;;;;;;5070879;28;20521;-86
2021/07/22 06:27:47;;;;;;;74.05;44.80;;;22.40;96.60;;;;;;5057193;28;20073;-88
2021/07/22 06:30:13;;;;;;;74.43;44.80;;;22.40;96.70;;;;;;5072382;28;20032;-84
2021/07/22 06:32:39;;;;;;;76.65;44.78;;;22.40;96.80;;;;;;5072754;28;20028;-84
2021/07/22 06:35:05;;;;;;;74.50;46.33;;;22.40;96.80;;;;;;5072438;28;20548;-84
2021/07/22 06:37:45;;;;;;;83.18;47.65;;;22.40;96.90;;;;;;5072832;28;20028;-82
2021/07/22 06:40:11;;;;;;;82.82;48.08;;;22.40;97.00;;;;;;5071932;28;20035;-80
2021/07/22 06:42:37;;;;;;;76.75;46.47;;;22.40;97.50;;;;;;5070416;28;20040;-81
2021/07/22 06:45:03;;;;;;;89.05;50.03;;;22.40;97.90;;;;;;5071932;28;20412;-78
2021/07/22 06:47:29;;;;;;;86.93;51.72;;;22.40;98.20;;;;;;5078361;28;20024;-78
2021/07/22 06:49:54;;;;;;;90.80;51.22;;;22.40;98.40;;;;;;5076188;28;20031;-81
2021/07/22 06:52:20;;;;;;;88.82;52.53;;;22.40;98.40;;;;;;5071997;28;20104;-78
2021/07/22 06:54:46;;;;;;;86.90;51.05;;;22.30;98.80;;;;;;5070844;28;20037;-77
2021/07/22 06:57:11;;;;;;;86.95;52.58;;;22.40;99.00;;;;;;5067037;28;20126;-77
2021/07/22 06:59:37;;;;;;;90.72;52.25;;;22.40;99.10;;;;;;5070626;28;20515;-78
2021/07/22 07:02:03;;;;;;;91.78;54.00;;;22.40;99.40;;;;;;5068535;28;20032;-80
2021/07/22 07:04:28;;;;;;;87.25;52.55;;;22.40;99.60;;;;;;5069569;28;20079;-79
2021/07/22 07:06:54;;;;;;;94.78;53.47;;;22.40;99.30;;;;;;5067808;28;20027;-78
2021/07/22 07:09:19;;;;;;;91.38;54.92;;;22.40;99.20;;;;;;5069417;28;20035;-78
2021/07/22 07:11:45;;;;;;;89.63;51.33;;;22.40;99.20;;;;;;5069930;28;20055;-79
2021/07/22 07:14:10;;;;;;;91.03;51.17;;;22.40;99.20;;;;;;5069733;28;20041;-79
2021/07/22 07:16:39;;;;;;;83.15;47.85;;;22.40;99.20;;;;;;5058796;28;20020;-79
2021/07/22 07:19:07;;;;;;;82.53;48.13;;;22.50;99.20;;;;;;5071070;28;20111;-78
2021/07/22 07:21:37;;;;;;;77.93;46.95;;;22.50;99.50;;;;;;5065406;28;20025;-78
2021/07/22 07:24:04;;;;;;;83.63;47.53;;;22.50;99.30;;;;;;5070112;28;20020;-78
2021/07/22 07:26:30;;;;;;;84.20;49.35;;;22.50;99.30;;;;;;5069960;28;20056;-78
2021/07/22 07:28:55;;;;;;;85.20;48.00;;;22.60;99.30;;;;;;5069989;28;20051;-77
2021/07/22 07:31:22;;;;;;;77.40;44.50;;;22.60;99.70;;;;;;5068457;28;20029;-77
2021/07/22 07:33:48;;;;;;;89.32;54.25;;;22.60;99.40;;;;;;5066615;28;20471;-80
2021/07/22 07:36:14;;;;;;;82.47;48.95;;;22.60;99.50;;;;;;5065200;28;20033;-77
2021/07/22 07:38:39;;;;;;;85.53;49.90;;;22.60;99.70;;;;;;5071422;28;20518;-82
2021/07/22 07:41:05;;;;;;;85.15;49.00;;;22.60;99.90;;;;;;5071479;28;20020;-77
2021/07/22 07:43:31;;;;;;;82.35;49.17;;;22.70;99.90;;;;;;5071464;28;20025;-79
2021/07/22 07:45:56;;;;;;;79.80;48.47;;;22.70;99.90;;;;;;5070060;28;20539;-79
2021/07/22 07:48:22;;;;;;;81.05;48.38;;;22.70;99.90;;;;;;5053971;28;20029;-77
2021/07/22 07:50:48;;;;;;;76.32;45.28;;;22.70;99.90;;;;;;5051369;28;20036;-77
2021/07/22 07:53:18;;;;;;;74.97;44.35;;;22.70;99.90;;;;;;5051295;28;20036;-77
2021/07/22 07:55:45;;;;;;;78.95;44.90;;;22.70;99.90;;;;;;5051419;28;20481;-78
2021/07/22 07:58:11;;;;;;;80.05;46.38;;;22.70;99.90;;;;;;5062570;28;20110;-81
2021/07/22 08:00:37;;;;;;;74.38;42.88;;;22.70;99.90;;;;;;5071245;28;20024;-77
2021/07/22 08:03:04;;;;;;;68.07;42.33;;;22.80;99.90;;;;;;5071172;28;20031;-78
2021/07/22 08:05:29;;;;;;;75.05;42.38;;;22.80;99.90;;;;;;5070792;28;20051;-78
2021/07/22 08:07:55;;;;;;;68.22;39.47;;;22.80;99.90;;;;;;5069880;28;20544;-76
2021/07/22 08:10:21;;;;;;;71.82;41.20;;;22.80;99.90;;;;;;5071175;28;20099;-77
2021/07/22 08:12:47;;;;;;;67.47;41.22;;;22.80;99.90;;;;;;5070594;28;20373;-78
2021/07/22 08:15:13;;;;;;;77.28;44.28;;;22.80;99.90;;;;;;5069195;28;20036;-78
2021/07/22 08:17:39;;;;;;;72.57;42.13;;;22.90;99.90;;;;;;5071318;28;20021;-75
2021/07/22 08:20:06;;;;;;;66.65;38.55;;;22.90;99.90;;;;;;5082072;28;20097;-76
2021/07/22 08:22:33;;;;;;;66.32;39.60;;;22.90;99.90;;;;;;5071722;28;20043;-77
2021/07/22 08:24:59;;;;;;;63.30;37.70;;;22.90;99.90;;;;;;5069606;28;20046;-77
2021/07/22 08:27:29;;;;;;;63.03;36.42;;;22.90;99.90;;;;;;5070789;28;20024;-77
2021/07/22 08:29:55;;;;;;;66.00;36.80;;;22.90;99.90;;;;;;5070869;28;20389;-77
2021/07/22 08:32:22;;;;;;;58.20;35.58;;;22.90;99.90;;;;;;5070689;28;20024;-78
2021/07/22 08:34:48;;;;;;;66.82;37.15;;;23.00;99.90;;;;;;5074379;28;20029;-78
2021/07/22 08:37:14;;;;;;;69.25;37.65;;;23.00;99.90;;;;;;5083371;28;20064;-78
2021/07/22 08:39:41;;;;;;;57.50;34.70;;;23.00;99.90;;;;;;5095174;28;20028;-77
2021/07/22 08:42:08;;;;;;;59.17;36.72;;;23.00;99.90;;;;;;5094398;28;20020;-77
2021/07/22 08:44:39;;;;;;;60.78;33.72;;;23.00;99.90;;;;;;5094719;28;20027;-79
2021/07/22 08:47:05;;;;;;;62.15;35.33;;;23.00;99.90;;;;;;5094572;28;20086;-77
2021/07/22 08:49:36;;;;;;;64.55;37.03;;;23.00;99.90;;;;;;5093098;28;20491;-77
2021/07/22 08:52:07;;;;;;;54.88;32.50;;;23.00;99.90;;;;;;5073899;28;20017;-77
2021/07/22 08:54:32;;;;;;;55.35;33.50;;;23.10;99.90;;;;;;5073539;28;20123;-78
2021/07/22 08:57:00;;;;;;;53.35;32.58;;;23.00;99.90;;;;;;5073307;28;20155;-79
2021/07/22 08:59:28;;;;;;;53.50;31.98;;;23.10;99.90;;;;;;5073552;28;20468;-77
2021/07/22 09:01:55;;;;;;;57.90;30.80;;;23.10;99.90;;;;;;5073504;28;20046;-77
2021/07/22 09:04:21;;;;;;;46.88;28.45;;;23.10;99.90;;;;;;5073909;28;20093;-78
2021/07/22 09:06:47;;;;;;;55.30;31.38;;;23.10;99.90;;;;;;5073610;28;20056;-83
2021/07/22 09:09:17;;;;;;;46.03;27.20;;;23.10;99.90;;;;;;5072601;28;20039;-78
2021/07/22 09:11:57;;;;;;;46.67;27.90;;;23.10;99.90;;;;;;5072248;28;20028;-80
2021/07/22 09:14:24;;;;;;;44.70;26.80;;;23.10;99.90;;;;;;5053640;28;20123;-79
2021/07/22 09:16:50;;;;;;;45.58;25.70;;;23.10;99.90;;;;;;5054044;28;20021;-84
2021/07/22 09:19:35;;;;;;;47.38;27.00;;;23.20;99.90;;;;;;5069189;28;20044;-80
2021/07/22 09:22:03;;;;;;;37.25;23.13;;;23.10;99.90;;;;;;5062934;28;20036;-80
2021/07/22 09:24:29;;;;;;;49.50;24.98;;;23.10;99.90;;;;;;5052321;28;20037;-79
2021/07/22 09:26:56;;;;;;;40.35;23.65;;;23.20;99.90;;;;;;5059715;28;20122;-78
2021/07/22 09:29:22;;;;;;;44.90;22.80;;;23.20;99.90;;;;;;5071691;28;20035;-77
2021/07/22 09:31:47;;;;;;;41.17;22.10;;;23.20;99.90;;;;;;5071739;28;20016;-77
2021/07/22 09:34:26;;;;;;;37.50;21.98;;;23.20;99.90;;;;;;5072170;28;20420;-77
2021/07/22 09:36:52;;;;;;;34.05;21.83;;;23.20;99.90;;;;;;5071212;28;20024;-78
2021/07/22 09:39:23;;;;;;;37.42;21.33;;;23.20;99.90;;;;;;5070136;28;20488;-78
2021/07/22 09:42:02;;;;;;;31.38;20.20;;;23.20;99.90;;;;;;5071236;28;20111;-78
2021/07/22 09:44:39;;;;;;;34.30;20.70;;;23.20;99.80;;;;;;5071001;28;20028;-78
2021/07/22 09:47:10;;;;;;;31.80;18.63;;;23.10;99.70;;;;;;5071139;28;20435;-77
2021/07/22 09:49:38;;;;;;;31.67;19.33;;;23.20;99.70;;;;;;5071639;28;20538;-78
2021/07/22 09:52:16;;;;;;;33.42;19.92;;;23.20;99.60;;;;;;5073125;28;20033;-78
2021/07/22 09:54:41;;;;;;;26.42;17.25;;;23.10;99.30;;;;;;5073134;28;20082;-78
2021/07/22 09:57:18;;;;;;;29.50;16.88;;;23.20;99.10;;;;;;5071211;28;20036;-77
2021/07/22 09:59:45;;;;;;;29.85;18.15;;;23.20;98.90;;;;;;5070968;28;20032;-78
2021/07/22 10:02:19;;;;;;;26.30;16.50;;;23.20;98.80;;;;;;5072934;28;20017;-78
2021/07/22 10:04:57;;;;;;;28.95;15.85;;;23.20;98.80;;;;;;5073273;28;20025;-78
2021/07/22 10:07:24;;;;;;;25.42;15.98;;;23.20;98.70;;;;;;5072662;28;20101;-78
2021/07/22 10:09:52;;;;;;;26.77;14.63;;;23.20;98.50;;;;;;5072744;28;20035;-78
2021/07/22 10:12:22;;;;;;;27.45;15.30;;;23.20;98.50;;;;;;5070237;28;20035;-78
2021/07/22 10:14:55;;;;;;;21.08;12.77;;;23.20;98.30;;;;;;5072208;28;20101;-78
2021/07/22 10:17:25;;;;;;;26.10;13.88;;;23.20;98.30;;;;;;5072662;28;20029;-79
2021/07/22 10:19:53;;;;;;;34.88;19.25;;;23.20;98.40;;;;;;5072782;28;20031;-79
2021/07/22 10:22:19;;;;;;;25.20;15.82;;;23.20;98.40;;;;;;5072295;28;20028;-78
2021/07/22 10:24:45;;;;;;;25.63;14.07;;;23.20;98.60;;;;;;5072318;28;20023;-78
2021/07/22 10:27:11;;;;;;;26.75;14.27;;;23.20;98.60;;;;;;5072426;28;20039;-77
2021/07/22 10:29:37;;;;;;;23.95;15.63;;;23.20;98.60;;;;;;5072510;28;20111;-78
2021/07/22 10:32:04;;;;;;;29.58;22.13;;;23.20;98.70;;;;;;5072124;28;20020;-79
2021/07/22 10:34:33;;;;;;;31.88;20.65;;;23.20;98.80;;;;;;5072058;28;20051;-78
2021/07/22 10:36:58;;;;;;;24.00;14.52;;;23.30;98.70;;;;;;5070417;28;20028;-77
2021/07/22 10:39:59;;;;;;;25.33;18.75;;;23.30;98.50;;;;;;5071739;28;20036;-79
2021/07/22 10:42:43;;;;;;;36.13;28.17;;;23.30;98.90;;;;;;5070701;28;20540;-79
2021/07/22 10:45:18;;;;;;;40.67;27.58;;;23.30;99.20;;;;;;5072094;28;20055;-79
2021/07/22 10:48:10;;;;;;;43.95;31.40;;;23.30;99.20;;;;;;5071632;28;20504;-78
2021/07/22 10:50:47;;;;;;;64.25;41.00;;;23.30;99.10;;;;;;5070181;28;20036;-78
2021/07/22 10:53:13;;;;;;;50.47;36.08;;;23.30;99.30;;;;;;5071717;28;20381;-79
2021/07/22 10:55:42;;;;;;;47.05;30.98;;;23.40;99.60;;;;;;5071458;28;20472;-78
2021/07/22 10:58:34;;;;;;;42.58;27.58;;;23.40;99.70;;;;;;5071530;28;20481;-79
2021/07/22 11:01:01;;;;;;;44.47;28.35;;;23.50;99.70;;;;;;5071631;28;20128;-80
2021/07/22 11:03:36;;;;;;;40.83;28.35;;;23.50;99.90;;;;;;5071071;28;20373;-81
2021/07/22 11:06:09;;;;;;;41.07;27.40;;;23.50;99.90;;;;;;5071433;28;20055;-84
2021/07/22 11:08:39;;;;;;;33.80;22.80;;;23.50;99.90;;;;;;5051827;28;20029;-79
2021/07/22 11:11:09;;;;;;;30.83;22.38;;;23.50;99.90;;;;;;5052087;28;20025;-79
2021/07/22 11:13:34;;;;;;;28.35;20.15;;;23.50;99.90;;;;;;5071423;28;20025;-79
2021/07/22 11:16:02;;;;;;;25.95;18.70;;;23.50;99.90;;;;;;5071666;28;20098;-78
2021/07/22 11:18:42;;;;;;;28.65;19.98;;;23.50;99.90;;;;;;5071426;28;20017;-80
2021/07/22 11:21:08;;;;;;;26.35;18.30;;;23.60;99.90;;;;;;5071406;28;20065;-80
2021/07/22 11:23:34;;;;;;;22.55;15.52;;;23.60;99.90;;;;;;5075396;28;20042;-80
2021/07/22 11:26:00;;;;;;;20.38;14.65;;;23.60;99.90;;;;;;5081357;28;20476;-79
2021/07/22 11:28:27;;;;;;;18.85;11.90;;;23.60;99.90;;;;;;5070154;28;20511;-78
2021/07/22 11:30:59;;;;;;;16.83;11.65;;;23.60;99.90;;;;;;5070919;28;20024;-78
2021/07/22 11:33:25;;;;;;;15.80;11.52;;;23.60;99.90;;;;;;5071445;28;20036;-79
2021/07/22 11:36:05;;;;;;;15.82;11.40;;;23.60;99.60;;;;;;5070034;28;20112;-78
2021/07/22 11:38:33;;;;;;;14.98;10.63;;;23.60;99.70;;;;;;5069924;28;20029;-79
2021/07/22 11:40:59;;;;;;;12.75;10.00;;;23.60;99.60;;;;;;5070427;28;20132;-78
2021/07/22 11:43:36;;;;;;;14.27;9.38;;;23.60;99.50;;;;;;5069293;28;20048;-77
2021/07/22 11:46:03;;;;;;;16.17;9.10;;;23.60;99.70;;;;;;5068832;28;20017;-77
2021/07/22 11:48:28;;;;;;;14.07;9.07;;;23.60;99.80;;;;;;5067631;28;20032;-77
2021/07/22 11:50:59;;;;;;;11.82;9.02;;;23.60;99.80;;;;;;5069116;28;20070;-79
2021/07/22 11:53:25;;;;;;;14.40;9.25;;;23.60;99.80;;;;;;5066534;28;20032;-77
2021/07/22 11:55:50;;;;;;;13.10;9.00;;;23.70;99.80;;;;;;5070433;28;20020;-77
2021/07/22 11:58:16;;;;;;;15.02;8.65;;;23.70;99.90;;;;;;5069688;28;20023;-77
2021/07/22 12:00:43;;;;;;;14.57;8.52;;;23.70;99.80;;;;;;5069502;28;20086;-78
2021/07/22 12:03:08;;;;;;;12.43;8.13;;;23.70;99.80;;;;;;5068862;28;20059;-78
2021/07/22 12:05:34;;;;;;;14.63;8.40;;;23.70;99.80;;;;;;5070257;28;20048;-79
2021/07/22 12:08:16;;;;;;;10.63;8.73;;;23.70;99.70;;;;;;5074113;28;20123;-78
2021/07/22 12:10:42;;;;;;;10.82;7.95;;;23.80;99.70;;;;;;5074257;28;20484;-80
2021/07/22 12:13:08;;;;;;;9.48;7.30;;;23.70;99.60;;;;;;5074078;28;20440;-80
2021/07/22 12:15:36;;;;;;;9.50;7.38;;;23.70;99.60;;;;;;5072833;28;20040;-76
2021/07/22 12:18:03;;;;;;;12.32;8.13;;;23.80;99.60;;;;;;5074106;28;20020;-77
2021/07/22 12:20:29;;;;;;;8.77;7.35;;;23.70;99.50;;;;;;5074091;28;20028;-77
2021/07/22 12:22:55;;;;;;;10.73;7.57;;;23.80;99.60;;;;;;5073891;28;20106;-78
2021/07/22 12:25:21;;;;;;;9.68;6.85;;;23.80;99.50;;;;;;5074478;28;20095;-77
2021/07/22 12:27:49;;;;;;;12.07;7.28;;;23.80;99.40;;;;;;5074053;28;20028;-77